Aeroporto :
LOGIN :

Iscrizione | Disclaimer

   EN    FR    IT 

 










Sommario :    VFR   VFR Marginale   IFR   IFR Intensivo   IFR Molto Intensivo
Visibilità : 
Base nubi : 
>= 8 km
>= 3000ft
5 / 8 km
1000 / 3000 ft
1500m / 5 km
500 / 1000 ft
800 / 1500m
200 / 500 ft
< 800m
< 200 ft
Simboli :   Temporali  Nebbia  Neve Forte  Precipitazioni Forti  Vento > 20 kt
SIGMETs :   Varie  Temporali  Ghiacco  Turbolenza  Onda orograficha  Ceneri Vulcaniche







- Altitudine del aeroporto : 33 ft
- Codice IATA : MHZ


EGUN - RAF Mildenhall

ULTIMO METAR :
  • 200801Z 33006KT 9000 BR OVC008 12/12 A2987 RMK AO2A CIG 007 RWY29 SLP118 $

METARs OBSOLETI :
  • 200656Z 31009KT 9999 BKN007 OVC090 12/12 A2986 RMK AO2A SLP115 T01160116 $
  • 200646Z 32007KT 9000 BR BKN007 OVC090 12/12 A2986 RMK AO2A CIG 007V090 BKN V FEW SLP115 $
  • 200631Z 32007KT 9000 BR FEW006 OVC090 12/12 A2986 RMK AO2A SLP115 $
  • 200616Z 31006KT 9000 BR BKN005 OVC090 11/11 A2985 RMK AO2A CIG 004V090 SLP111 $
  • 200556Z 30006KT 6000 BR OVC004 11/11 A2985 RMK AO2A RAE06RAB09E34DZB34E46 SLPNO P//// 6//// T01130113 10116 20108 53005 $
  • 200546Z 30006KT 5000 BR BKN005 BKN060 11/11 A2985 RMK AO2A RAE06RAB09E34DZB34E46 CIG 004 RWY11 SLP111 $
  • 200544Z 31005KT 5000 -DZ BR BKN005 BKN060 11/11 A2985 RMK AO2A RAE06RAB09E34DZB34 CIG 004 RWY11 SLP111 $

TAF AMD TAF EGUN
Valido dal 20 a 08 ore il 21 a 10 ore UTC


200825Z 2008/2110 34009KT 9000 BR SCT015 BKN050 QNH2986INS
TEMPO 2008/2012 OVC008
BECMG 2100/2101 31006KT 5000 BR SCT007 BKN010 QNH2995INS
BECMG 2107/2108 32009KT 9999 NSW SCT015 QNH3001INS TX18/2014Z TN08/2100Z
Nessun NOTAM noto per questo aeroporto.
2 SIGMETs conosciuti per la FIR London (EGTT) :
 
Temporali affogati
EGTT SIGMET 02 VALID 200845/201245 EGRR
EGTT LONDON FIR EMBD TS FCST WI N5500 E00500 - N5404 E00412 - N5348 E00231 - N5500 E00231 - N5500 E00500 TOP FL280 MOV NW 10KT NC=
Temporali affogati
EGTT SIGMET 01 VALID 200445/200845 EGRR
EGTT LONDON FIR EMBD TS FCST WI N5451 E00452 - N5348 E00359 - N5348 E00259 - N5500 E00227 - N5500 E00451 - N5451 E00452 TOP FL280 MOV NNW 15KT NC=



MetMap, La meteo Aeronautica in un colpo d'occhio ! - Copyright ORBIFLY Dicembre 2007 - Disclaimer

ORBIFLY MET'MAP TEAM :

Programmazione e sviluppo : Alexandra Zaïnal
Concezione e sviluppo : Baudouin d'Aumeries
Co-Programmazione e sviluppo : Marc-Olivier Méhu
Supporto tecnico e logistico : Manuel Goepfert
Aiuto per la traduzione : Arnaldo La Scala

Contatto : metmap@orbifly.com




FONTI E CREDITI :

   NOAA